Time;durP1;ratioP1;P1;durP2;ratioP2;P2;SDS_P1;SDS_P2;PMS_P1;PMS_P2;Temp;Humidity;BMP_temperature;BMP_pressure;BME280_temperature;BME280_humidity;BME280_pressure;Samples;Min_cycle;Max_cycle;Signal;HPM_P1;HPM_P2
2023/10/27 00:00:25;;;;;;;0.82;0.50;;;;;;;18.59;50.41;91333.75;6127933;23;20021;-91
2023/10/27 00:02:51;;;;;;;0.70;0.45;;;;;;;18.63;50.96;91330.59;6128899;23;20017;-91
2023/10/27 00:05:16;;;;;;;1.10;0.50;;;;;;;18.61;50.68;91333.91;6128390;23;20018;-92
2023/10/27 00:07:42;;;;;;;1.10;0.60;;;;;;;18.63;50.30;91319.63;6152572;23;20400;-90
2023/10/27 00:10:07;;;;;;;1.45;0.50;;;;;;;18.63;50.50;91325.13;6128260;23;20021;-91
2023/10/27 00:12:33;;;;;;;1.85;0.68;;;;;;;18.64;50.61;91318.34;6153498;23;20032;-92
2023/10/27 00:14:59;;;;;;;1.23;0.85;;;;;;;18.66;50.58;91313.03;6129625;23;20009;-90
2023/10/27 00:17:24;;;;;;;0.75;0.50;;;;;;;18.62;50.36;91307.28;6152929;23;20437;-92
2023/10/27 00:19:53;;;;;;;0.80;0.40;;;;;;;18.61;50.82;91303.09;6152113;23;20009;-90
2023/10/27 00:22:18;;;;;;;1.65;0.60;;;;;;;18.64;50.80;91307.41;6128066;23;20019;-90
2023/10/27 00:24:44;;;;;;;0.30;0.30;;;;;;;18.62;50.71;91296.31;6153458;23;20013;-92
2023/10/27 00:27:09;;;;;;;1.05;0.45;;;;;;;18.61;50.29;91278.47;6152210;23;20117;-91
2023/10/27 00:29:35;;;;;;;0.75;0.52;;;;;;;18.60;50.45;91291.41;6128417;23;20017;-91
2023/10/27 00:32:00;;;;;;;1.20;0.73;;;;;;;18.59;50.57;91287.22;6127834;23;20017;-90
2023/10/27 00:34:26;;;;;;;0.38;0.38;;;;;;;18.63;50.67;91278.59;6104359;23;20017;-90
2023/10/27 00:36:51;;;;;;;0.73;0.45;;;;;;;18.60;50.46;91271.53;6145603;23;20021;-91
2023/10/27 00:39:16;;;;;;;1.60;0.90;;;;;;;18.58;50.08;91272.06;6116360;23;20089;-90
2023/10/27 00:41:42;;;;;;;0.52;0.40;;;;;;;18.58;50.22;91277.53;6091888;23;20502;-92
2023/10/27 00:44:07;;;;;;;0.80;0.60;;;;;;;18.58;50.55;91269.34;6116204;23;20497;-92
2023/10/27 00:46:33;;;;;;;1.65;0.30;;;;;;;18.57;50.42;91261.69;6092323;23;20033;-90
2023/10/27 00:48:58;;;;;;;0.75;0.40;;;;;;;18.63;50.39;91257.44;6116325;23;20067;-93
2023/10/27 00:51:23;;;;;;;0.52;0.40;;;;;;;18.59;50.61;91256.38;6090902;23;20022;-91
2023/10/27 00:53:49;;;;;;;1.15;0.47;;;;;;;18.58;50.60;91254.94;6116876;23;20018;-90
2023/10/27 00:56:14;;;;;;;0.93;0.50;;;;;;;18.61;50.60;91242.88;6091339;23;20018;-92
2023/10/27 00:58:40;;;;;;;0.60;0.45;;;;;;;18.57;50.36;91235.06;6092129;23;20021;-91
2023/10/27 01:01:05;;;;;;;0.68;0.40;;;;;;;18.56;50.61;91235.59;6091138;23;20033;-90
2023/10/27 01:03:31;;;;;;;0.57;0.30;;;;;;;18.58;50.43;91225.56;6067594;23;20339;-92
2023/10/27 01:05:56;;;;;;;0.52;0.40;;;;;;;18.58;50.78;91224.81;6116780;23;20483;-91
2023/10/27 01:08:22;;;;;;;1.48;0.40;;;;;;;18.58;50.47;91228.28;6091465;23;20030;-90
2023/10/27 01:10:47;;;;;;;0.70;0.40;;;;;;;18.58;50.37;91222.81;6110784;23;20021;-92
2023/10/27 01:13:13;;;;;;;0.82;0.50;;;;;;;18.58;50.35;91205.69;6102716;23;20033;-90
2023/10/27 01:15:38;;;;;;;0.47;0.43;;;;;;;18.59;50.40;91218.06;6127993;23;20017;-90
2023/10/27 01:18:04;;;;;;;1.08;0.40;;;;;;;18.57;50.67;91213.16;6147111;23;20029;-90
2023/10/27 01:20:29;;;;;;;0.88;0.52;;;;;;;18.60;50.37;91205.88;6115538;23;20374;-91
2023/10/27 01:22:54;;;;;;;0.68;0.55;;;;;;;18.57;50.48;91199.47;6116012;23;20450;-90
2023/10/27 01:25:20;;;;;;;0.52;0.50;;;;;;;18.56;50.33;91194.56;6139338;23;20040;-90
2023/10/27 01:27:45;;;;;;;0.40;0.30;;;;;;;18.57;50.84;91182.34;6103533;23;20017;-92
2023/10/27 01:30:11;;;;;;;0.30;0.30;;;;;;;18.56;50.71;91172.69;6139737;23;20460;-90
2023/10/27 01:32:37;;;;;;;0.70;0.35;;;;;;;18.59;50.67;91166.09;6102409;23;20028;-90
2023/10/27 01:35:02;;;;;;;1.13;0.43;;;;;;;18.54;50.55;91164.31;6128556;23;20017;-90
2023/10/27 01:37:28;;;;;;;0.80;0.40;;;;;;;18.53;50.54;91147.16;6127020;23;20346;-91
2023/10/27 01:39:56;;;;;;;0.40;0.38;;;;;;;18.58;50.60;91140.72;6103597;23;20036;-90
2023/10/27 01:42:22;;;;;;;0.70;0.40;;;;;;;18.58;50.66;91127.06;6103811;23;20039;-93
2023/10/27 01:44:48;;;;;;;0.57;0.40;;;;;;;18.58;50.64;91126.31;6127271;23;20524;-92
2023/10/27 01:47:13;;;;;;;1.63;0.40;;;;;;;18.57;50.39;91103.72;6102404;23;20023;-91
2023/10/27 01:49:38;;;;;;;0.60;0.47;;;;;;;18.59;50.43;91105.88;6103955;23;20020;-91
2023/10/27 01:52:04;;;;;;;0.65;0.30;;;;;;;18.58;50.75;91101.69;6127135;23;20020;-92
2023/10/27 01:54:29;;;;;;;0.93;0.40;;;;;;;18.56;50.58;91090.59;6127871;23;20091;-90
2023/10/27 01:56:55;;;;;;;0.60;0.40;;;;;;;18.58;50.64;91093.50;6102461;23;20025;-91
2023/10/27 01:59:20;;;;;;;0.50;0.40;;;;;;;18.56;50.60;91082.38;6150990;23;20017;-91
2023/10/27 02:01:45;;;;;;;0.52;0.40;;;;;;;18.57;50.59;91075.63;6126240;23;20024;-90
2023/10/27 02:04:11;;;;;;;0.85;0.30;;;;;;;18.56;50.54;91072.16;6126837;23;20075;-89
2023/10/27 02:06:36;;;;;;;0.40;0.40;;;;;;;18.59;50.77;91067.56;6127557;23;20048;-90
2023/10/27 02:09:02;;;;;;;0.32;0.20;;;;;;;18.58;50.78;91066.84;6127943;23;20023;-89
2023/10/27 02:11:27;;;;;;;0.32;0.32;;;;;;;18.55;50.36;91056.31;6127018;23;20249;-91
2023/10/27 02:13:53;;;;;;;0.60;0.40;;;;;;;18.59;50.58;91053.91;6103221;23;20025;-91
2023/10/27 02:16:18;;;;;;;0.80;0.50;;;;;;;18.57;50.48;91054.47;6127041;23;20028;-91
2023/10/27 02:18:44;;;;;;;0.70;0.50;;;;;;;18.56;50.68;91041.34;6103089;23;20461;-89
2023/10/27 02:21:09;;;;;;;0.60;0.40;;;;;;;18.58;50.25;91041.50;6126642;23;20030;-92
2023/10/27 02:23:35;;;;;;;0.50;0.35;;;;;;;18.57;50.69;91031.84;6103136;23;20017;-91
2023/10/27 02:26:00;;;;;;;0.35;0.30;;;;;;;18.55;50.28;91034.44;6127811;23;20453;-89
2023/10/27 02:28:25;;;;;;;0.30;0.30;;;;;;;18.54;50.30;91022.75;6126734;23;20453;-93
2023/10/27 02:30:51;;;;;;;1.00;0.50;;;;;;;18.53;50.18;91012.38;6102314;23;20445;-89
2023/10/27 02:33:16;;;;;;;0.75;0.38;;;;;;;18.54;50.25;91011.81;6126918;23;20029;-92
2023/10/27 02:35:42;;;;;;;0.90;0.40;;;;;;;18.54;50.76;91011.81;6181417;23;20027;-92
2023/10/27 02:38:07;;;;;;;1.38;0.40;;;;;;;18.55;50.42;91007.06;6132343;23;20017;-91
2023/10/27 02:40:36;;;;;;;1.08;0.30;;;;;;;18.56;50.81;91001.03;6127387;23;20028;-91
2023/10/27 02:43:01;;;;;;;1.65;0.50;;;;;;;18.52;50.71;90997.97;6151574;23;20028;-91
2023/10/27 02:45:27;;;;;;;1.02;0.40;;;;;;;18.57;50.65;90993.53;6156247;23;20024;-91
2023/10/27 02:47:52;;;;;;;0.47;0.40;;;;;;;18.53;50.54;90993.97;6157360;23;20015;-90
2023/10/27 02:50:18;;;;;;;0.45;0.30;;;;;;;18.50;50.62;90987.59;6154922;23;20024;-91
2023/10/27 02:52:43;;;;;;;0.75;0.40;;;;;;;18.51;50.52;90988.34;6126715;23;20025;-91
2023/10/27 02:55:09;;;;;;;0.68;0.30;;;;;;;18.54;50.70;90978.25;6128567;23;20021;-90
2023/10/27 02:57:34;;;;;;;0.32;0.30;;;;;;;18.54;50.51;90989.94;6126935;23;20016;-93
2023/10/27 02:59:59;;;;;;;0.60;0.40;;;;;;;18.51;50.58;90982.84;6127101;23;20021;-92
2023/10/27 03:02:26;;;;;;;0.55;0.55;;;;;;;18.52;50.55;90984.31;6156133;23;20043;-91
2023/10/27 03:04:53;;;;;;;0.85;0.47;;;;;;;18.54;50.31;90995.41;6151557;23;20016;-91
2023/10/27 03:07:19;;;;;;;0.60;0.43;;;;;;;18.53;50.29;90993.25;6155349;23;20025;-91
2023/10/27 03:09:44;;;;;;;0.45;0.30;;;;;;;18.55;50.67;91001.59;6157124;23;20024;-90
2023/10/27 03:12:10;;;;;;;1.70;0.60;;;;;;;18.55;50.50;90996.84;6132024;23;20077;-90
2023/10/27 03:14:35;;;;;;;0.32;0.30;;;;;;;18.55;50.41;90998.88;6144885;23;20044;-91
2023/10/27 03:17:01;;;;;;;0.52;0.50;;;;;;;18.52;50.36;91006.19;6132522;23;20017;-92
2023/10/27 03:19:26;;;;;;;0.35;0.35;;;;;;;18.54;50.37;91011.09;6131876;23;20480;-92
2023/10/27 03:21:51;;;;;;;1.35;0.30;;;;;;;18.53;50.66;91015.84;6151662;23;20437;-91
2023/10/27 03:24:17;;;;;;;0.68;0.40;;;;;;;18.50;50.68;91012.22;6167547;23;20349;-93
2023/10/27 03:26:42;;;;;;;0.82;0.43;;;;;;;18.57;50.68;91013.41;6128450;23;20381;-92
2023/10/27 03:29:08;;;;;;;0.68;0.30;;;;;;;18.56;50.46;91008.50;6125635;23;20353;-94
2023/10/27 03:31:34;;;;;;;0.57;0.50;;;;;;;18.58;50.31;91001.19;6158413;23;20511;-91
2023/10/27 03:34:02;;;;;;;0.55;0.20;;;;;;;18.56;50.38;90994.84;6133715;23;20337;-92
2023/10/27 03:36:28;;;;;;;2.05;0.35;;;;;;;18.54;50.16;90995.41;6129047;23;20810;-90
2023/10/27 03:38:53;;;;;;;1.77;0.40;;;;;;;18.50;50.14;91003.31;6135886;23;20036;-92
2023/10/27 03:41:19;;;;;;;0.70;0.30;;;;;;;18.57;50.73;90994.28;6131957;23;20083;-91
2023/10/27 03:43:44;;;;;;;0.98;0.32;;;;;;;18.58;50.39;90995.00;6157837;23;20016;-91
2023/10/27 03:46:10;;;;;;;0.32;0.30;;;;;;;18.53;50.39;90998.72;6132143;23;20083;-91
2023/10/27 03:48:35;;;;;;;0.30;0.30;;;;;;;18.56;50.72;91005.78;6143190;23;20229;-91
2023/10/27 03:51:05;;;;;;;0.70;0.35;;;;;;;18.50;50.53;91003.31;6153016;23;20016;-92
2023/10/27 03:53:31;;;;;;;0.57;0.45;;;;;;;18.53;50.42;91010.38;6157961;23;20016;-91
2023/10/27 03:55:56;;;;;;;0.90;0.30;;;;;;;18.55;50.16;91009.81;6158834;23;20102;-90
2023/10/27 03:58:22;;;;;;;0.55;0.32;;;;;;;18.55;50.41;91016.00;6157823;23;20356;-90
2023/10/27 04:00:47;;;;;;;1.50;0.50;;;;;;;18.53;50.22;91017.84;6128644;23;20453;-93
2023/10/27 04:03:13;;;;;;;0.63;0.40;;;;;;;18.50;50.36;91023.16;6127453;23;20437;-91
2023/10/27 04:05:38;;;;;;;0.38;0.20;;;;;;;18.52;50.18;91019.88;6133600;23;20074;-92
2023/10/27 04:08:04;;;;;;;0.28;0.28;;;;;;;18.54;50.24;91019.31;6132833;23;20322;-90
2023/10/27 04:10:33;;;;;;;1.08;0.28;;;;;;;18.56;50.32;91014.00;6134430;23;20055;-90
2023/10/27 04:12:59;;;;;;;0.50;0.40;;;;;;;18.54;50.30;91009.09;6153530;23;20453;-91
2023/10/27 04:15:25;;;;;;;0.40;0.32;;;;;;;18.54;50.07;91019.31;6157248;23;20017;-93
2023/10/27 04:17:51;;;;;;;0.55;0.40;;;;;;;18.52;50.51;91024.63;6128781;23;20017;-91
2023/10/27 04:20:16;;;;;;;0.63;0.40;;;;;;;18.54;50.40;91025.50;6155615;23;20029;-91
2023/10/27 04:22:42;;;;;;;0.20;0.20;;;;;;;18.54;50.10;91022.03;6127842;23;20021;-91
2023/10/27 04:25:09;;;;;;;0.32;0.32;;;;;;;18.53;50.03;91021.31;6125138;23;20017;-93
2023/10/27 04:27:36;;;;;;;1.13;0.40;;;;;;;18.53;50.36;91017.84;6145971;23;20063;-94
2023/10/27 04:30:04;;;;;;;0.80;0.50;;;;;;;18.54;50.56;91028.22;6134212;23;20120;-93
2023/10/27 04:32:29;;;;;;;0.40;0.30;;;;;;;18.54;50.51;91025.50;6177013;23;20029;-91
2023/10/27 04:34:56;;;;;;;0.63;0.30;;;;;;;18.53;50.51;91028.81;6128365;23;20452;-91
2023/10/27 04:37:21;;;;;;;0.40;0.30;;;;;;;18.54;50.25;91022.75;6128097;23;20025;-92
2023/10/27 04:39:47;;;;;;;0.20;0.20;;;;;;;18.57;50.34;91024.38;6153178;23;20098;-91
2023/10/27 04:42:12;;;;;;;0.43;0.30;;;;;;;18.51;50.26;91012.94;6152761;23;20079;-91
2023/10/27 04:44:39;;;;;;;0.35;0.25;;;;;;;18.48;50.46;91014.09;6152653;23;20013;-90
2023/10/27 04:47:04;;;;;;;0.30;0.22;;;;;;;18.54;50.55;91011.81;6127534;23;20452;-92
2023/10/27 04:49:30;;;;;;;0.60;0.30;;;;;;;18.50;50.56;91012.22;6152902;23;20071;-89
2023/10/27 04:51:55;;;;;;;0.40;0.35;;;;;;;18.48;50.64;91017.53;6114929;23;20029;-93
2023/10/27 04:54:21;;;;;;;0.75;0.30;;;;;;;18.48;50.46;91014.81;6128616;23;20021;-92
2023/10/27 04:56:46;;;;;;;1.20;0.40;;;;;;;18.46;50.82;91008.47;6152714;23;20554;-92
2023/10/27 04:59:12;;;;;;;0.40;0.40;;;;;;;18.40;50.75;91008.72;6128002;23;20020;-92
2023/10/27 05:01:37;;;;;;;3.13;0.60;;;;;;;18.44;50.99;91011.75;6129262;23;20023;-94
2023/10/27 05:04:03;;;;;;;2.33;0.68;;;;;;;18.39;51.08;91012.75;6153364;23;20032;-93
2023/10/27 05:06:30;;;;;;;1.83;0.60;;;;;;;18.42;50.64;91010.88;6128328;23;20340;-91
2023/10/27 05:08:55;;;;;;;1.88;0.70;;;;;;;18.45;50.74;91010.47;6153604;23;20028;-92
2023/10/27 05:11:21;;;;;;;1.17;0.50;;;;;;;18.42;50.73;91014.34;6151745;23;20021;-92
2023/10/27 05:13:46;;;;;;;0.70;0.40;;;;;;;18.40;50.36;91003.25;6128054;23;20017;-92
2023/10/27 05:16:12;;;;;;;1.80;0.40;;;;;;;18.40;50.57;91010.75;6128155;23;20532;-92
2023/10/27 05:18:37;;;;;;;1.65;0.30;;;;;;;18.50;50.88;91004.03;6152688;23;20079;-92
2023/10/27 05:21:03;;;;;;;0.40;0.30;;;;;;;18.44;50.58;91005.56;6127622;23;20068;-90
2023/10/27 05:23:28;;;;;;;0.55;0.30;;;;;;;18.42;50.48;91017.06;6177038;23;20083;-91
2023/10/27 05:25:54;;;;;;;0.57;0.40;;;;;;;18.44;50.46;91017.22;6152901;23;20460;-92
2023/10/27 05:28:19;;;;;;;0.57;0.30;;;;;;;18.47;50.40;91027.03;6152404;23;20483;-92
2023/10/27 05:30:46;;;;;;;0.65;0.32;;;;;;;18.50;50.33;91033.41;6127968;23;20020;-90
2023/10/27 05:33:12;;;;;;;0.30;0.30;;;;;;;18.46;50.41;91028.34;6144014;23;20666;-92
2023/10/27 05:35:38;;;;;;;0.38;0.30;;;;;;;18.49;50.44;91031.94;6127526;23;20152;-93
2023/10/27 05:38:03;;;;;;;0.30;0.20;;;;;;;18.45;50.65;91043.31;6127714;23;20033;-91
2023/10/27 05:40:31;;;;;;;0.60;0.30;;;;;;;18.49;50.38;91051.09;6120639;23;20024;-92
2023/10/27 05:42:58;;;;;;;0.32;0.28;;;;;;;18.51;50.54;91043.03;6134407;23;20020;-90
2023/10/27 05:45:23;;;;;;;2.28;0.38;;;;;;;18.49;50.49;91034.69;6140230;23;20013;-92
2023/10/27 05:47:48;;;;;;;0.60;0.52;;;;;;;18.48;50.40;91050.38;6127311;23;20016;-92
2023/10/27 05:50:14;;;;;;;0.22;0.20;;;;;;;18.51;50.67;91056.72;6102910;23;20553;-92
2023/10/27 05:52:39;;;;;;;0.20;0.20;;;;;;;18.47;50.58;91054.41;6132841;23;20020;-92
2023/10/27 05:55:05;;;;;;;0.20;0.20;;;;;;;18.48;50.45;91066.78;6177191;23;20021;-92
2023/10/27 05:57:31;;;;;;;1.50;0.30;;;;;;;18.47;50.31;91075.56;6157448;23;20012;-93
2023/10/27 05:59:57;;;;;;;0.28;0.20;;;;;;;18.52;50.32;91082.06;6135331;23;20031;-92
2023/10/27 06:02:22;;;;;;;0.85;0.38;;;;;;;18.52;50.32;91093.75;6103219;23;20025;-93
2023/10/27 06:04:48;;;;;;;0.38;0.20;;;;;;;18.50;50.44;91088.84;6115874;23;20075;-93
2023/10/27 06:07:15;;;;;;;0.32;0.25;;;;;;;18.51;50.70;91095.03;6127079;23;20033;-90
2023/10/27 06:09:40;;;;;;;0.40;0.20;;;;;;;18.52;50.58;91107.41;6103896;23;20016;-90
2023/10/27 06:12:07;;;;;;;0.32;0.17;;;;;;;18.47;50.68;91116.59;6127724;23;20040;-92
2023/10/27 06:14:32;;;;;;;0.20;0.20;;;;;;;18.48;50.38;91118.03;6141266;23;20017;-89
2023/10/27 06:16:58;;;;;;;0.20;0.20;;;;;;;18.52;50.44;91117.63;6138656;23;20247;-93
2023/10/27 06:19:24;;;;;;;0.38;0.30;;;;;;;18.50;50.59;91127.13;6181656;23;20036;-90
2023/10/27 06:21:49;;;;;;;0.20;0.20;;;;;;;18.49;50.45;91127.69;6157491;23;20095;-90
2023/10/27 06:24:15;;;;;;;0.95;0.20;;;;;;;18.50;50.32;91138.09;6117917;23;20009;-93
2023/10/27 06:26:41;;;;;;;1.15;0.22;;;;;;;18.47;50.57;91141.22;6156776;23;20047;-91
2023/10/27 06:29:06;;;;;;;0.25;0.25;;;;;;;18.49;50.39;91136.63;6157209;23;20035;-91
2023/10/27 06:31:32;;;;;;;0.35;0.25;;;;;;;18.49;50.33;91142.09;6126729;23;20352;-92
2023/10/27 06:33:58;;;;;;;0.20;0.20;;;;;;;18.49;50.39;91146.84;6132448;23;20024;-91
2023/10/27 06:36:25;;;;;;;0.73;0.30;;;;;;;18.47;50.78;91152.16;6157038;23;20020;-91
2023/10/27 06:38:50;;;;;;;0.20;0.20;;;;;;;18.48;50.56;91162.53;6133055;23;20103;-92
2023/10/27 06:41:15;;;;;;;0.25;0.20;;;;;;;18.49;50.29;91169.47;6157046;23;20005;-92
2023/10/27 06:43:41;;;;;;;0.22;0.20;;;;;;;18.49;50.06;91158.53;6157686;23;20016;-93
2023/10/27 06:46:06;;;;;;;0.38;0.22;;;;;;;18.48;50.01;91173.47;6156447;23;20027;-93
2023/10/27 06:48:32;;;;;;;0.15;0.10;;;;;;;18.48;50.51;91178.22;6157389;23;20009;-92
2023/10/27 06:50:57;;;;;;;1.17;0.30;;;;;;;18.53;50.49;91190.22;6181321;23;20095;-91
2023/10/27 06:53:23;;;;;;;0.40;0.10;;;;;;;18.56;50.38;91197.31;6157130;23;20451;-92
2023/10/27 06:55:48;;;;;;;0.20;0.20;;;;;;;18.51;50.48;91199.00;6132709;23;20460;-90
2023/10/27 06:58:14;;;;;;;0.28;0.25;;;;;;;18.46;50.61;91199.97;6157106;23;20024;-91
2023/10/27 07:00:39;;;;;;;0.73;0.55;;;;;;;18.41;51.17;91200.91;6159803;23;20012;-93
2023/10/27 07:03:05;;;;;;;0.57;0.25;;;;;;;18.37;51.14;91204.09;6159349;23;20107;-93
2023/10/27 07:05:30;;;;;;;1.88;0.38;;;;;;;18.32;51.59;91196.09;6160348;23;20012;-90
2023/10/27 07:07:56;;;;;;;3.00;0.52;;;;;;;18.31;52.09;91208.34;6159365;23;20353;-92
2023/10/27 07:10:21;;;;;;;0.75;0.47;;;;;;;18.35;51.82;91212.13;6134216;23;20020;-93
2023/10/27 07:12:47;;;;;;;2.60;0.60;;;;;;;18.41;51.60;91214.59;6134617;23;20048;-90
2023/10/27 07:15:13;;;;;;;0.50;0.30;;;;;;;18.39;51.75;91212.44;6133769;23;20016;-89
2023/10/27 07:17:38;;;;;;;0.50;0.30;;;;;;;18.40;51.34;91224.81;6134056;23;20023;-91
2023/10/27 07:20:04;;;;;;;0.45;0.30;;;;;;;18.42;51.39;91208.56;6133239;23;20016;-91
2023/10/27 07:22:30;;;;;;;1.02;0.30;;;;;;;18.44;51.03;91219.66;6183629;23;20013;-92
2023/10/27 07:24:55;;;;;;;0.40;0.30;;;;;;;18.41;51.07;91228.28;6159133;23;20051;-89
2023/10/27 07:27:21;;;;;;;0.55;0.30;;;;;;;18.40;51.36;91238.50;6158063;23;20024;-91
2023/10/27 07:29:46;;;;;;;0.47;0.40;;;;;;;18.45;50.99;91228.59;6159575;23;20341;-89
2023/10/27 07:32:12;;;;;;;0.20;0.20;;;;;;;18.43;50.88;91226.44;6153252;23;20029;-92
2023/10/27 07:34:37;;;;;;;0.35;0.35;;;;;;;18.47;51.11;91226.75;6085458;23;20357;-90
2023/10/27 07:37:04;;;;;;;0.28;0.17;;;;;;;18.46;50.92;91228.03;6123652;23;20258;-90
2023/10/27 07:39:32;;;;;;;0.10;0.10;;;;;;;18.44;50.93;91236.09;6089032;23;20358;-89
2023/10/27 07:41:57;;;;;;;1.65;0.20;;;;;;;18.44;51.06;91232.63;6124190;23;20064;-91
2023/10/27 07:44:23;;;;;;;1.20;0.30;;;;;;;18.41;51.01;91231.72;6099763;23;20076;-93
2023/10/27 07:46:48;;;;;;;0.28;0.20;;;;;;;18.46;51.13;91230.06;6099496;23;20009;-92
2023/10/27 07:49:14;;;;;;;0.22;0.20;;;;;;;18.43;50.81;91229.16;6100097;23;20438;-92
2023/10/27 07:51:39;;;;;;;0.20;0.20;;;;;;;18.46;51.19;91221.84;6100120;23;20014;-91
2023/10/27 07:54:04;;;;;;;0.17;0.17;;;;;;;18.46;50.91;91230.06;6100056;23;20021;-92
2023/10/27 07:56:32;;;;;;;0.32;0.20;;;;;;;18.45;50.80;91229.31;6075801;23;20021;-93
2023/10/27 07:58:58;;;;;;;0.50;0.20;;;;;;;18.47;50.97;91234.22;6076241;23;20025;-94
2023/10/27 08:01:24;;;;;;;0.17;0.17;;;;;;;18.45;50.74;91245.75;6135097;23;20072;-92
2023/10/27 08:03:50;;;;;;;0.32;0.22;;;;;;;18.44;50.80;91244.28;6122404;23;20014;-90
2023/10/27 08:06:16;;;;;;;0.20;0.20;;;;;;;18.44;50.67;91249.75;6037664;23;20030;-91
2023/10/27 08:08:41;;;;;;;0.20;0.20;;;;;;;18.45;50.88;91251.22;6064040;23;20011;-93
2023/10/27 08:11:06;;;;;;;0.10;0.10;;;;;;;18.44;50.46;91249.03;6063369;23;20053;-94
2023/10/27 08:13:32;;;;;;;0.20;0.20;;;;;;;18.48;50.68;91252.09;6064435;23;20500;-93
2023/10/27 08:15:59;;;;;;;0.32;0.13;;;;;;;18.47;50.68;91258.84;6065124;23;20113;-91
2023/10/27 08:18:25;;;;;;;0.60;0.30;;;;;;;18.48;50.76;91263.75;6038616;23;20062;-90
2023/10/27 08:20:54;;;;;;;0.30;0.10;;;;;;;18.48;50.56;91263.75;6039707;23;20355;-90
2023/10/27 08:23:20;;;;;;;3.20;0.38;;;;;;;18.45;50.68;91264.88;6063189;23;20022;-91
2023/10/27 08:25:50;;;;;;;0.20;0.20;;;;;;;18.54;50.84;91268.28;6064434;23;20019;-89
2023/10/27 08:28:15;;;;;;;2.33;0.22;;;;;;;18.48;50.73;91266.50;6063234;23;20034;-88
2023/10/27 08:30:43;;;;;;;0.13;0.10;;;;;;;18.47;50.83;91265.06;6039698;23;20019;-92
2023/10/27 08:33:09;;;;;;;0.10;0.10;;;;;;;18.46;50.92;91269.06;6063211;23;20026;-93
2023/10/27 08:35:34;;;;;;;0.22;0.13;;;;;;;18.45;50.89;91281.31;6064664;23;20093;-93
2023/10/27 08:38:00;;;;;;;0.20;0.10;;;;;;;18.49;50.75;91270.69;6116505;23;20024;-92
2023/10/27 08:40:26;;;;;;;0.10;0.10;;;;;;;18.45;50.60;91270.34;6128007;23;20017;-90
2023/10/27 08:42:52;;;;;;;0.40;0.40;;;;;;;18.47;50.86;91272.53;6104569;23;20043;-93
2023/10/27 08:45:18;;;;;;;0.10;0.10;;;;;;;18.46;51.13;91271.09;6128633;23;20460;-91
2023/10/27 08:47:43;;;;;;;0.10;0.10;;;;;;;18.45;50.63;91277.84;6128303;23;20017;-92
2023/10/27 08:50:09;;;;;;;0.80;0.20;;;;;;;18.49;51.19;91269.97;6128750;23;20446;-91
2023/10/27 08:52:34;;;;;;;1.45;0.20;;;;;;;18.47;51.33;91269.81;6128913;23;20080;-91
2023/10/27 08:55:01;;;;;;;1.45;0.17;;;;;;;18.51;51.31;91270.13;6104336;23;20024;-89
2023/10/27 08:57:26;;;;;;;0.17;0.17;;;;;;;18.46;50.82;91271.09;6134676;23;20018;-89
2023/10/27 08:59:52;;;;;;;0.55;0.10;;;;;;;18.46;51.41;91274.53;6148099;23;20064;-92
2023/10/27 09:02:33;;;;;;;0.10;0.10;;;;;;;18.47;50.94;91276.00;6123270;23;20025;-93
2023/10/27 09:05:03;;;;;;;0.70;0.10;;;;;;;18.46;50.75;91282.75;6075994;23;20557;-92
2023/10/27 09:07:30;;;;;;;0.47;0.28;;;;;;;18.48;50.83;91284.94;6086337;23;20076;-92
2023/10/27 09:09:57;;;;;;;0.10;0.10;;;;;;;18.49;51.22;91289.13;6092362;23;20022;-92
2023/10/27 09:12:26;;;;;;;0.10;0.10;;;;;;;18.50;50.82;91290.56;6067661;23;20117;-90
2023/10/27 09:15:00;;;;;;;0.63;0.30;;;;;;;18.48;50.86;91299.34;6068942;23;20022;-92
2023/10/27 09:17:26;;;;;;;0.10;0.10;;;;;;;18.47;50.67;91294.41;6067843;23;20021;-91
2023/10/27 09:20:05;;;;;;;0.10;0.10;;;;;;;18.44;50.89;91304.47;6068148;23;20017;-90
2023/10/27 09:22:30;;;;;;;0.35;0.10;;;;;;;18.48;50.71;91302.06;6085626;23;20469;-91
2023/10/27 09:25:12;;;;;;;9.27;6.78;;;;;;;18.51;50.75;91305.69;6098852;23;20028;-90
2023/10/27 09:27:42;;;;;;;4.50;1.88;;;;;;;18.49;51.16;91303.53;6102377;23;20032;-89
2023/10/27 09:30:08;;;;;;;1.00;0.50;;;;;;;18.49;51.09;91297.31;6103187;23;20129;-90
2023/10/27 09:32:36;;;;;;;1.67;1.10;;;;;;;18.49;51.12;91300.78;6074613;23;20021;-93
2023/10/27 09:35:18;;;;;;;1.88;1.42;;;;;;;18.48;50.84;91307.53;6095001;23;20347;-92
2023/10/27 09:37:46;;;;;;;3.60;2.67;;;;;;;18.48;50.86;91304.06;6100289;23;20017;-90
2023/10/27 09:40:13;;;;;;;3.78;2.40;;;;;;;18.47;50.68;91299.91;6104876;23;20349;-88
2023/10/27 09:42:49;;;;;;;12.02;6.32;;;;;;;18.47;50.94;91299.91;6110080;23;20060;-89
2023/10/27 09:45:16;;;;;;;7.97;6.30;;;;;;;18.50;51.16;91299.50;6088787;23;20032;-91
2023/10/27 09:47:41;;;;;;;8.50;6.40;;;;;;;18.49;51.09;91311.72;6109769;23;20009;-93
2023/10/27 09:50:07;;;;;;;9.27;6.70;;;;;;;18.50;51.12;91315.19;6153914;23;20104;-92
2023/10/27 09:52:35;;;;;;;11.80;8.80;;;;;;;18.48;51.03;91302.06;6129883;23;20071;-90
2023/10/27 09:55:01;;;;;;;11.15;7.57;;;;;;;18.49;51.22;91298.03;6118056;23;20362;-92
2023/10/27 09:57:28;;;;;;;6.57;4.88;;;;;;;18.50;51.12;91294.03;6131547;23;20071;-91
2023/10/27 09:59:55;;;;;;;14.70;10.98;;;;;;;18.52;51.24;91281.78;6156124;23;20052;-92
2023/10/27 10:02:24;;;;;;;12.45;9.48;;;;;;;18.50;50.89;91279.63;6125479;23;20025;-92
2023/10/27 10:04:57;;;;;;;14.10;10.32;;;;;;;18.51;51.10;91286.53;6101939;23;20017;-90
2023/10/27 10:07:30;;;;;;;20.20;14.32;;;;;;;18.52;51.13;91288.00;6124873;23;20021;-90
2023/10/27 10:09:56;;;;;;;14.73;11.27;;;;;;;18.50;51.08;91280.34;6149143;23;20022;-89
2023/10/27 10:12:22;;;;;;;14.70;11.02;;;;;;;18.46;51.05;91290.97;6100369;23;20021;-93
2023/10/27 10:14:48;;;;;;;11.88;9.20;;;;;;;18.46;50.94;91280.00;6108600;23;20013;-93
2023/10/27 10:17:40;;;;;;;17.42;13.27;;;;;;;18.49;51.12;91281.63;6097970;23;20025;-91
2023/10/27 10:20:06;;;;;;;23.27;18.27;;;;;;;18.48;51.13;91277.44;6148142;23;20021;-90
2023/10/27 10:22:41;;;;;;;18.70;14.27;;;;;;;18.54;50.93;91274.47;6122642;23;20005;-91
2023/10/27 10:25:24;;;;;;;21.90;15.00;;;;;;;18.52;51.03;91266.09;6146949;23;20022;-90
2023/10/27 10:28:09;;;;;;;15.77;12.00;;;;;;;18.50;51.03;91258.47;6133394;23;20017;-91
2023/10/27 10:30:38;;;;;;;13.30;10.50;;;;;;;18.49;50.76;91273.44;6171721;23;20017;-90
2023/10/27 10:33:26;;;;;;;13.88;10.88;;;;;;;18.49;51.05;91262.47;6156920;23;20364;-90
2023/10/27 10:35:52;;;;;;;15.20;11.05;;;;;;;18.52;51.11;91262.66;6133653;23;20044;-90
2023/10/27 10:38:20;;;;;;;12.85;10.25;;;;;;;18.49;50.96;91267.94;6154035;23;20124;-90
2023/10/27 10:40:56;;;;;;;12.73;10.32;;;;;;;18.45;50.94;91267.63;6151258;23;20404;-92
2023/10/27 10:43:27;;;;;;;12.02;9.73;;;;;;;18.47;51.44;91265.06;6128442;23;20476;-91
2023/10/27 10:45:56;;;;;;;12.25;9.77;;;;;;;18.48;51.11;91257.56;6146469;23;20021;-91
2023/10/27 10:48:24;;;;;;;10.82;9.10;;;;;;;18.49;51.19;91262.47;6119081;23;20504;-93
2023/10/27 10:50:50;;;;;;;12.98;9.32;;;;;;;18.47;51.08;91261.59;6151797;23;20051;-91
2023/10/27 10:53:17;;;;;;;15.27;9.73;;;;;;;18.45;50.59;91269.63;6154805;23;20108;-91
2023/10/27 10:55:45;;;;;;;13.50;9.60;;;;;;;18.45;51.06;91264.16;6127764;23;20017;-90
2023/10/27 10:58:11;;;;;;;11.88;8.50;;;;;;;18.50;51.00;91271.41;6149868;23;20021;-92
2023/10/27 11:00:36;;;;;;;12.43;8.50;;;;;;;18.50;51.06;91274.88;6132124;23;20110;-91
2023/10/27 11:03:08;;;;;;;11.77;8.00;;;;;;;18.49;50.65;91275.44;6156812;23;20029;-87
2023/10/27 11:05:34;;;;;;;9.38;7.10;;;;;;;18.43;50.80;91267.47;6155294;23;20094;-92
2023/10/27 11:08:00;;;;;;;9.10;7.20;;;;;;;18.47;51.31;91280.75;6154773;23;20016;-90
2023/10/27 11:10:26;;;;;;;8.60;7.03;;;;;;;18.45;51.11;91275.84;6130856;23;20109;-90
2023/10/27 11:12:51;;;;;;;10.70;6.90;;;;;;;18.46;51.42;91282.75;6126003;23;20314;-89
2023/10/27 11:15:51;;;;;;;9.27;7.32;;;;;;;18.45;50.98;91286.78;6126900;23;20028;-90
2023/10/27 11:18:16;;;;;;;9.13;6.82;;;;;;;18.46;50.68;91285.50;6178896;23;20103;-90
2023/10/27 11:20:43;;;;;;;9.77;7.60;;;;;;;18.46;50.93;91290.97;6126907;23;20037;-90
2023/10/27 11:23:12;;;;;;;10.75;7.30;;;;;;;18.44;51.05;91301.75;6123869;23;20520;-90
2023/10/27 11:25:38;;;;;;;8.48;6.88;;;;;;;18.48;51.09;91288.38;6103015;23;20013;-90
2023/10/27 11:28:26;;;;;;;10.63;7.63;;;;;;;18.44;50.96;91304.47;6150610;23;20120;-89